<?xml version="1.0" encoding="UTF-8" standalone="no" ?>
<gpx xmlns="http://www.topografix.com/GPX/1/1" xmlns:xsi="http://www.w3.org/2001/XMLSchema-instance" xsi:schemaLocation="http://www.topografix.com/GPX/1/1 http://www.topografix.com/GPX/1/1/gpx.xsd" version="1.1" creator="VisuGPX - https://www.visugpx.com">
  <metadata>
    <name>2012/12/30 Rando forêt Domaniale des Andaines</name>
    <desc><![CDATA[Rando forêt Domaniale des Andaines]]></desc>
  </metadata>
  <trk>
    <name><![CDATA[2012/12/30 Rando forêt Domaniale des Andaines_1]]></name>
    <trkseg>
      <trkpt lat="48.57752" lon="-0.57634">
        <ele>196.1</ele>
        <time>2012-12-30T12:48:56Z</time>
      </trkpt>
      <trkpt lat="48.57752" lon="-0.57634">
        <ele>228</ele>
        <time>2012-12-30T12:49:00Z</time>
      </trkpt>
      <trkpt lat="48.57737" lon="-0.57642">
        <ele>235</ele>
        <time>2012-12-30T12:49:13Z</time>
      </trkpt>
      <trkpt lat="48.57723" lon="-0.57654">
        <ele>228</ele>
        <time>2012-12-30T12:49:27Z</time>
      </trkpt>
      <trkpt lat="48.57702" lon="-0.57668">
        <ele>232</ele>
        <time>2012-12-30T12:49:43Z</time>
      </trkpt>
      <trkpt lat="48.57689" lon="-0.57674">
        <ele>235</ele>
        <time>2012-12-30T12:49:52Z</time>
      </trkpt>
      <trkpt lat="48.57671" lon="-0.57666">
        <ele>236</ele>
        <time>2012-12-30T12:50:06Z</time>
      </trkpt>
      <trkpt lat="48.57659" lon="-0.57645">
        <ele>246</ele>
        <time>2012-12-30T12:50:22Z</time>
      </trkpt>
      <trkpt lat="48.57644" lon="-0.57623">
        <ele>240</ele>
        <time>2012-12-30T12:50:36Z</time>
      </trkpt>
      <trkpt lat="48.57644" lon="-0.57623">
        <ele>240</ele>
        <time>2012-12-30T12:50:42Z</time>
      </trkpt>
      <trkpt lat="48.57642" lon="-0.57621">
        <ele>235</ele>
        <time>2012-12-30T12:50:43Z</time>
      </trkpt>
      <trkpt lat="48.57626" lon="-0.57621">
        <ele>231</ele>
        <time>2012-12-30T12:51:15Z</time>
      </trkpt>
      <trkpt lat="48.5761" lon="-0.57607">
        <ele>232</ele>
        <time>2012-12-30T12:51:30Z</time>
      </trkpt>
      <trkpt lat="48.57607" lon="-0.57593">
        <ele>227</ele>
        <time>2012-12-30T12:51:45Z</time>
      </trkpt>
      <trkpt lat="48.57601" lon="-0.57571">
        <ele>227</ele>
        <time>2012-12-30T12:52:00Z</time>
      </trkpt>
      <trkpt lat="48.57589" lon="-0.57564">
        <ele>240</ele>
        <time>2012-12-30T12:52:14Z</time>
      </trkpt>
      <trkpt lat="48.57582" lon="-0.57561">
        <ele>248</ele>
        <time>2012-12-30T12:52:22Z</time>
      </trkpt>
      <trkpt lat="48.57581" lon="-0.57568">
        <ele>249</ele>
        <time>2012-12-30T12:52:30Z</time>
      </trkpt>
      <trkpt lat="48.57574" lon="-0.57606">
        <ele>243</ele>
        <time>2012-12-30T12:53:11Z</time>
      </trkpt>
      <trkpt lat="48.57549" lon="-0.5764">
        <ele>251</ele>
        <time>2012-12-30T12:53:26Z</time>
      </trkpt>
      <trkpt lat="48.57532" lon="-0.57648">
        <ele>251</ele>
        <time>2012-12-30T12:53:36Z</time>
      </trkpt>
      <trkpt lat="48.57518" lon="-0.57647">
        <ele>247</ele>
        <time>2012-12-30T12:53:48Z</time>
      </trkpt>
      <trkpt lat="48.57498" lon="-0.57652">
        <ele>251</ele>
        <time>2012-12-30T12:54:02Z</time>
      </trkpt>
      <trkpt lat="48.57486" lon="-0.57656">
        <ele>249</ele>
        <time>2012-12-30T12:54:11Z</time>
      </trkpt>
      <trkpt lat="48.57467" lon="-0.57659">
        <ele>255</ele>
        <time>2012-12-30T12:54:25Z</time>
      </trkpt>
      <trkpt lat="48.57447" lon="-0.57662">
        <ele>259</ele>
        <time>2012-12-30T12:54:41Z</time>
      </trkpt>
      <trkpt lat="48.57435" lon="-0.57672">
        <ele>247</ele>
        <time>2012-12-30T12:54:54Z</time>
      </trkpt>
      <trkpt lat="48.57426" lon="-0.57678">
        <ele>252</ele>
        <time>2012-12-30T12:55:00Z</time>
      </trkpt>
      <trkpt lat="48.57408" lon="-0.57696">
        <ele>248</ele>
        <time>2012-12-30T12:55:16Z</time>
      </trkpt>
      <trkpt lat="48.57393" lon="-0.57698">
        <ele>250</ele>
        <time>2012-12-30T12:55:31Z</time>
      </trkpt>
      <trkpt lat="48.57374" lon="-0.57718">
        <ele>251</ele>
        <time>2012-12-30T12:55:44Z</time>
      </trkpt>
      <trkpt lat="48.57364" lon="-0.57722">
        <ele>248</ele>
        <time>2012-12-30T12:55:58Z</time>
      </trkpt>
      <trkpt lat="48.57352" lon="-0.57728">
        <ele>252</ele>
        <time>2012-12-30T12:56:11Z</time>
      </trkpt>
      <trkpt lat="48.57352" lon="-0.57728">
        <ele>252</ele>
        <time>2012-12-30T12:58:22Z</time>
      </trkpt>
      <trkpt lat="48.57332" lon="-0.57734">
        <ele>261</ele>
        <time>2012-12-30T12:58:31Z</time>
      </trkpt>
      <trkpt lat="48.5731" lon="-0.57745">
        <ele>249</ele>
        <time>2012-12-30T12:58:46Z</time>
      </trkpt>
      <trkpt lat="48.57297" lon="-0.57753">
        <ele>247</ele>
        <time>2012-12-30T12:58:59Z</time>
      </trkpt>
      <trkpt lat="48.57277" lon="-0.57764">
        <ele>243</ele>
        <time>2012-12-30T12:59:14Z</time>
      </trkpt>
      <trkpt lat="48.57268" lon="-0.57772">
        <ele>245</ele>
        <time>2012-12-30T12:59:22Z</time>
      </trkpt>
      <trkpt lat="48.57248" lon="-0.57781">
        <ele>226</ele>
        <time>2012-12-30T12:59:37Z</time>
      </trkpt>
      <trkpt lat="48.57226" lon="-0.57789">
        <ele>232</ele>
        <time>2012-12-30T12:59:53Z</time>
      </trkpt>
      <trkpt lat="48.57221" lon="-0.57792">
        <ele>232</ele>
        <time>2012-12-30T12:59:57Z</time>
      </trkpt>
      <trkpt lat="48.57209" lon="-0.57801">
        <ele>233</ele>
        <time>2012-12-30T13:00:09Z</time>
      </trkpt>
      <trkpt lat="48.57196" lon="-0.57815">
        <ele>235</ele>
        <time>2012-12-30T13:00:19Z</time>
      </trkpt>
      <trkpt lat="48.57186" lon="-0.57825">
        <ele>240</ele>
        <time>2012-12-30T13:00:28Z</time>
      </trkpt>
      <trkpt lat="48.57179" lon="-0.57823">
        <ele>234</ele>
        <time>2012-12-30T13:00:38Z</time>
      </trkpt>
      <trkpt lat="48.57179" lon="-0.57823">
        <ele>234</ele>
        <time>2012-12-30T13:00:44Z</time>
      </trkpt>
      <trkpt lat="48.57168" lon="-0.5782">
        <ele>230</ele>
        <time>2012-12-30T13:00:48Z</time>
      </trkpt>
      <trkpt lat="48.57158" lon="-0.57818">
        <ele>221</ele>
        <time>2012-12-30T13:00:59Z</time>
      </trkpt>
      <trkpt lat="48.57144" lon="-0.57824">
        <ele>226</ele>
        <time>2012-12-30T13:01:12Z</time>
      </trkpt>
      <trkpt lat="48.57127" lon="-0.57844">
        <ele>233</ele>
        <time>2012-12-30T13:01:29Z</time>
      </trkpt>
      <trkpt lat="48.57127" lon="-0.57844">
        <ele>233</ele>
        <time>2012-12-30T13:01:37Z</time>
      </trkpt>
      <trkpt lat="48.57127" lon="-0.57844">
        <ele>233</ele>
        <time>2012-12-30T13:01:38Z</time>
      </trkpt>
      <trkpt lat="48.5714" lon="-0.57854">
        <ele>228</ele>
        <time>2012-12-30T13:01:56Z</time>
      </trkpt>
      <trkpt lat="48.57144" lon="-0.57875">
        <ele>230</ele>
        <time>2012-12-30T13:02:11Z</time>
      </trkpt>
      <trkpt lat="48.57141" lon="-0.57915">
        <ele>224</ele>
        <time>2012-12-30T13:02:33Z</time>
      </trkpt>
      <trkpt lat="48.57142" lon="-0.57935">
        <ele>227</ele>
        <time>2012-12-30T13:02:44Z</time>
      </trkpt>
      <trkpt lat="48.57145" lon="-0.57958">
        <ele>225</ele>
        <time>2012-12-30T13:03:00Z</time>
      </trkpt>
      <trkpt lat="48.57151" lon="-0.57982">
        <ele>221</ele>
        <time>2012-12-30T13:03:13Z</time>
      </trkpt>
      <trkpt lat="48.57159" lon="-0.58012">
        <ele>219</ele>
        <time>2012-12-30T13:03:34Z</time>
      </trkpt>
      <trkpt lat="48.57158" lon="-0.58038">
        <ele>230</ele>
        <time>2012-12-30T13:03:46Z</time>
      </trkpt>
      <trkpt lat="48.57159" lon="-0.58052">
        <ele>228</ele>
        <time>2012-12-30T13:03:52Z</time>
      </trkpt>
      <trkpt lat="48.57157" lon="-0.5808">
        <ele>233</ele>
        <time>2012-12-30T13:04:06Z</time>
      </trkpt>
      <trkpt lat="48.57157" lon="-0.58095">
        <ele>232</ele>
        <time>2012-12-30T13:04:19Z</time>
      </trkpt>
      <trkpt lat="48.57157" lon="-0.58119">
        <ele>236</ele>
        <time>2012-12-30T13:04:28Z</time>
      </trkpt>
      <trkpt lat="48.57158" lon="-0.58137">
        <ele>242</ele>
        <time>2012-12-30T13:04:36Z</time>
      </trkpt>
      <trkpt lat="48.57167" lon="-0.58161">
        <ele>235</ele>
        <time>2012-12-30T13:04:51Z</time>
      </trkpt>
      <trkpt lat="48.57171" lon="-0.58158">
        <ele>231</ele>
        <time>2012-12-30T13:04:58Z</time>
      </trkpt>
      <trkpt lat="48.57174" lon="-0.58159">
        <ele>222</ele>
        <time>2012-12-30T13:05:06Z</time>
      </trkpt>
      <trkpt lat="48.57185" lon="-0.58188">
        <ele>209</ele>
        <time>2012-12-30T13:05:31Z</time>
      </trkpt>
      <trkpt lat="48.57185" lon="-0.58188">
        <ele>209</ele>
        <time>2012-12-30T13:05:39Z</time>
      </trkpt>
      <trkpt lat="48.57193" lon="-0.58188">
        <ele>213</ele>
        <time>2012-12-30T13:05:41Z</time>
      </trkpt>
      <trkpt lat="48.57197" lon="-0.58201">
        <ele>219</ele>
        <time>2012-12-30T13:05:53Z</time>
      </trkpt>
      <trkpt lat="48.57198" lon="-0.58217">
        <ele>224</ele>
        <time>2012-12-30T13:06:03Z</time>
      </trkpt>
      <trkpt lat="48.57205" lon="-0.58257">
        <ele>224</ele>
        <time>2012-12-30T13:06:22Z</time>
      </trkpt>
      <trkpt lat="48.57201" lon="-0.58278">
        <ele>227</ele>
        <time>2012-12-30T13:06:35Z</time>
      </trkpt>
      <trkpt lat="48.57205" lon="-0.58315">
        <ele>228</ele>
        <time>2012-12-30T13:06:54Z</time>
      </trkpt>
      <trkpt lat="48.5721" lon="-0.58334">
        <ele>229</ele>
        <time>2012-12-30T13:07:07Z</time>
      </trkpt>
      <trkpt lat="48.57212" lon="-0.58355">
        <ele>224</ele>
        <time>2012-12-30T13:07:22Z</time>
      </trkpt>
      <trkpt lat="48.57206" lon="-0.58378">
        <ele>225</ele>
        <time>2012-12-30T13:07:32Z</time>
      </trkpt>
      <trkpt lat="48.57207" lon="-0.58409">
        <ele>227</ele>
        <time>2012-12-30T13:07:45Z</time>
      </trkpt>
      <trkpt lat="48.57223" lon="-0.5841">
        <ele>228</ele>
        <time>2012-12-30T13:08:00Z</time>
      </trkpt>
      <trkpt lat="48.57236" lon="-0.58422">
        <ele>219</ele>
        <time>2012-12-30T13:08:13Z</time>
      </trkpt>
      <trkpt lat="48.5724" lon="-0.58485">
        <ele>223</ele>
        <time>2012-12-30T13:09:05Z</time>
      </trkpt>
      <trkpt lat="48.57241" lon="-0.58493">
        <ele>224</ele>
        <time>2012-12-30T13:09:09Z</time>
      </trkpt>
      <trkpt lat="48.57238" lon="-0.58501">
        <ele>226</ele>
        <time>2012-12-30T13:09:18Z</time>
      </trkpt>
      <trkpt lat="48.57236" lon="-0.58515">
        <ele>226</ele>
        <time>2012-12-30T13:09:30Z</time>
      </trkpt>
      <trkpt lat="48.57219" lon="-0.58553">
        <ele>196</ele>
        <time>2012-12-30T13:10:11Z</time>
      </trkpt>
      <trkpt lat="48.57228" lon="-0.58588">
        <ele>219</ele>
        <time>2012-12-30T13:10:20Z</time>
      </trkpt>
      <trkpt lat="48.57228" lon="-0.58588">
        <ele>219</ele>
        <time>2012-12-30T13:10:27Z</time>
      </trkpt>
      <trkpt lat="48.57228" lon="-0.58588">
        <ele>219</ele>
        <time>2012-12-30T13:10:28Z</time>
      </trkpt>
      <trkpt lat="48.57256" lon="-0.58609">
        <ele>212</ele>
        <time>2012-12-30T13:11:16Z</time>
      </trkpt>
      <trkpt lat="48.57268" lon="-0.58627">
        <ele>209</ele>
        <time>2012-12-30T13:11:34Z</time>
      </trkpt>
      <trkpt lat="48.57276" lon="-0.5865">
        <ele>212</ele>
        <time>2012-12-30T13:11:51Z</time>
      </trkpt>
      <trkpt lat="48.57285" lon="-0.5867">
        <ele>219</ele>
        <time>2012-12-30T13:12:06Z</time>
      </trkpt>
      <trkpt lat="48.57296" lon="-0.58683">
        <ele>219</ele>
        <time>2012-12-30T13:12:18Z</time>
      </trkpt>
      <trkpt lat="48.57308" lon="-0.58686">
        <ele>219</ele>
        <time>2012-12-30T13:12:29Z</time>
      </trkpt>
      <trkpt lat="48.57323" lon="-0.58693">
        <ele>217</ele>
        <time>2012-12-30T13:12:46Z</time>
      </trkpt>
      <trkpt lat="48.57342" lon="-0.58687">
        <ele>215</ele>
        <time>2012-12-30T13:13:05Z</time>
      </trkpt>
      <trkpt lat="48.57355" lon="-0.58682">
        <ele>214</ele>
        <time>2012-12-30T13:13:20Z</time>
      </trkpt>
      <trkpt lat="48.57386" lon="-0.5868">
        <ele>213</ele>
        <time>2012-12-30T13:13:58Z</time>
      </trkpt>
      <trkpt lat="48.57401" lon="-0.58686">
        <ele>219</ele>
        <time>2012-12-30T13:14:13Z</time>
      </trkpt>
      <trkpt lat="48.57417" lon="-0.58687">
        <ele>222</ele>
        <time>2012-12-30T13:14:26Z</time>
      </trkpt>
      <trkpt lat="48.57432" lon="-0.58689">
        <ele>222</ele>
        <time>2012-12-30T13:14:38Z</time>
      </trkpt>
      <trkpt lat="48.57442" lon="-0.5869">
        <ele>220</ele>
        <time>2012-12-30T13:14:44Z</time>
      </trkpt>
      <trkpt lat="48.57446" lon="-0.58693">
        <ele>225</ele>
        <time>2012-12-30T13:14:55Z</time>
      </trkpt>
      <trkpt lat="48.57474" lon="-0.58701">
        <ele>230</ele>
        <time>2012-12-30T13:15:29Z</time>
      </trkpt>
      <trkpt lat="48.57493" lon="-0.58712">
        <ele>228</ele>
        <time>2012-12-30T13:15:48Z</time>
      </trkpt>
      <trkpt lat="48.57503" lon="-0.58715">
        <ele>233</ele>
        <time>2012-12-30T13:15:59Z</time>
      </trkpt>
      <trkpt lat="48.57519" lon="-0.58723">
        <ele>234</ele>
        <time>2012-12-30T13:16:18Z</time>
      </trkpt>
      <trkpt lat="48.57534" lon="-0.58732">
        <ele>235</ele>
        <time>2012-12-30T13:16:35Z</time>
      </trkpt>
      <trkpt lat="48.57545" lon="-0.5874">
        <ele>228</ele>
        <time>2012-12-30T13:16:48Z</time>
      </trkpt>
      <trkpt lat="48.57555" lon="-0.58744">
        <ele>231</ele>
        <time>2012-12-30T13:16:58Z</time>
      </trkpt>
      <trkpt lat="48.57558" lon="-0.58745">
        <ele>233</ele>
        <time>2012-12-30T13:17:07Z</time>
      </trkpt>
      <trkpt lat="48.57584" lon="-0.58756">
        <ele>232</ele>
        <time>2012-12-30T13:17:52Z</time>
      </trkpt>
      <trkpt lat="48.57602" lon="-0.58764">
        <ele>233</ele>
        <time>2012-12-30T13:18:11Z</time>
      </trkpt>
      <trkpt lat="48.57614" lon="-0.58766">
        <ele>239</ele>
        <time>2012-12-30T13:18:21Z</time>
      </trkpt>
      <trkpt lat="48.57621" lon="-0.58771">
        <ele>239</ele>
        <time>2012-12-30T13:18:28Z</time>
      </trkpt>
      <trkpt lat="48.57624" lon="-0.58775">
        <ele>240</ele>
        <time>2012-12-30T13:18:43Z</time>
      </trkpt>
      <trkpt lat="48.57649" lon="-0.58794">
        <ele>234</ele>
        <time>2012-12-30T13:19:28Z</time>
      </trkpt>
      <trkpt lat="48.5766" lon="-0.58805">
        <ele>234</ele>
        <time>2012-12-30T13:19:45Z</time>
      </trkpt>
      <trkpt lat="48.57673" lon="-0.58828">
        <ele>238</ele>
        <time>2012-12-30T13:20:01Z</time>
      </trkpt>
      <trkpt lat="48.57675" lon="-0.58839">
        <ele>233</ele>
        <time>2012-12-30T13:20:08Z</time>
      </trkpt>
      <trkpt lat="48.57682" lon="-0.5885">
        <ele>226</ele>
        <time>2012-12-30T13:20:23Z</time>
      </trkpt>
      <trkpt lat="48.57691" lon="-0.58892">
        <ele>228</ele>
        <time>2012-12-30T13:20:58Z</time>
      </trkpt>
      <trkpt lat="48.57707" lon="-0.58927">
        <ele>229</ele>
        <time>2012-12-30T13:21:19Z</time>
      </trkpt>
      <trkpt lat="48.57709" lon="-0.5895">
        <ele>237</ele>
        <time>2012-12-30T13:21:37Z</time>
      </trkpt>
      <trkpt lat="48.57712" lon="-0.58993">
        <ele>229</ele>
        <time>2012-12-30T13:22:35Z</time>
      </trkpt>
      <trkpt lat="48.57719" lon="-0.59031">
        <ele>227</ele>
        <time>2012-12-30T13:23:03Z</time>
      </trkpt>
      <trkpt lat="48.57715" lon="-0.59053">
        <ele>234</ele>
        <time>2012-12-30T13:23:17Z</time>
      </trkpt>
      <trkpt lat="48.57715" lon="-0.59077">
        <ele>229</ele>
        <time>2012-12-30T13:23:31Z</time>
      </trkpt>
      <trkpt lat="48.57717" lon="-0.591">
        <ele>226</ele>
        <time>2012-12-30T13:23:42Z</time>
      </trkpt>
      <trkpt lat="48.57719" lon="-0.59123">
        <ele>236</ele>
        <time>2012-12-30T13:24:00Z</time>
      </trkpt>
      <trkpt lat="48.57717" lon="-0.59146">
        <ele>228</ele>
        <time>2012-12-30T13:24:14Z</time>
      </trkpt>
      <trkpt lat="48.57711" lon="-0.59171">
        <ele>232</ele>
        <time>2012-12-30T13:24:30Z</time>
      </trkpt>
      <trkpt lat="48.57715" lon="-0.59189">
        <ele>232</ele>
        <time>2012-12-30T13:24:44Z</time>
      </trkpt>
      <trkpt lat="48.57718" lon="-0.59212">
        <ele>236</ele>
        <time>2012-12-30T13:24:57Z</time>
      </trkpt>
      <trkpt lat="48.57718" lon="-0.5924">
        <ele>228</ele>
        <time>2012-12-30T13:25:13Z</time>
      </trkpt>
      <trkpt lat="48.57716" lon="-0.59269">
        <ele>231</ele>
        <time>2012-12-30T13:25:29Z</time>
      </trkpt>
      <trkpt lat="48.57712" lon="-0.59293">
        <ele>225</ele>
        <time>2012-12-30T13:25:43Z</time>
      </trkpt>
      <trkpt lat="48.5771" lon="-0.59317">
        <ele>237</ele>
        <time>2012-12-30T13:26:00Z</time>
      </trkpt>
      <trkpt lat="48.5771" lon="-0.59342">
        <ele>233</ele>
        <time>2012-12-30T13:26:18Z</time>
      </trkpt>
      <trkpt lat="48.57705" lon="-0.59374">
        <ele>238</ele>
        <time>2012-12-30T13:26:39Z</time>
      </trkpt>
      <trkpt lat="48.57703" lon="-0.59387">
        <ele>243</ele>
        <time>2012-12-30T13:26:49Z</time>
      </trkpt>
      <trkpt lat="48.57699" lon="-0.59387">
        <ele>239</ele>
        <time>2012-12-30T13:26:58Z</time>
      </trkpt>
      <trkpt lat="48.57694" lon="-0.59434">
        <ele>233</ele>
        <time>2012-12-30T13:30:03Z</time>
      </trkpt>
      <trkpt lat="48.57692" lon="-0.59448">
        <ele>232</ele>
        <time>2012-12-30T13:30:16Z</time>
      </trkpt>
      <trkpt lat="48.57688" lon="-0.59473">
        <ele>237</ele>
        <time>2012-12-30T13:30:34Z</time>
      </trkpt>
      <trkpt lat="48.57684" lon="-0.59487">
        <ele>231</ele>
        <time>2012-12-30T13:30:45Z</time>
      </trkpt>
      <trkpt lat="48.57682" lon="-0.59496">
        <ele>236</ele>
        <time>2012-12-30T13:30:52Z</time>
      </trkpt>
      <trkpt lat="48.57677" lon="-0.5952">
        <ele>230</ele>
        <time>2012-12-30T13:31:09Z</time>
      </trkpt>
      <trkpt lat="48.57678" lon="-0.59544">
        <ele>226</ele>
        <time>2012-12-30T13:31:25Z</time>
      </trkpt>
      <trkpt lat="48.57682" lon="-0.59575">
        <ele>232</ele>
        <time>2012-12-30T13:31:44Z</time>
      </trkpt>
      <trkpt lat="48.57682" lon="-0.59598">
        <ele>239</ele>
        <time>2012-12-30T13:32:00Z</time>
      </trkpt>
      <trkpt lat="48.57682" lon="-0.59598">
        <ele>239</ele>
        <time>2012-12-30T13:32:10Z</time>
      </trkpt>
      <trkpt lat="48.57682" lon="-0.59613">
        <ele>219</ele>
        <time>2012-12-30T13:32:16Z</time>
      </trkpt>
      <trkpt lat="48.57681" lon="-0.59646">
        <ele>218</ele>
        <time>2012-12-30T13:32:34Z</time>
      </trkpt>
      <trkpt lat="48.5768" lon="-0.59665">
        <ele>213</ele>
        <time>2012-12-30T13:32:46Z</time>
      </trkpt>
      <trkpt lat="48.57672" lon="-0.59685">
        <ele>220</ele>
        <time>2012-12-30T13:33:01Z</time>
      </trkpt>
      <trkpt lat="48.57664" lon="-0.59713">
        <ele>223</ele>
        <time>2012-12-30T13:33:19Z</time>
      </trkpt>
      <trkpt lat="48.57663" lon="-0.5972">
        <ele>230</ele>
        <time>2012-12-30T13:33:24Z</time>
      </trkpt>
      <trkpt lat="48.57663" lon="-0.59726">
        <ele>242</ele>
        <time>2012-12-30T13:33:34Z</time>
      </trkpt>
      <trkpt lat="48.57662" lon="-0.59766">
        <ele>222</ele>
        <time>2012-12-30T13:35:16Z</time>
      </trkpt>
      <trkpt lat="48.57659" lon="-0.59779">
        <ele>223</ele>
        <time>2012-12-30T13:35:29Z</time>
      </trkpt>
      <trkpt lat="48.57658" lon="-0.59797">
        <ele>221</ele>
        <time>2012-12-30T13:35:42Z</time>
      </trkpt>
      <trkpt lat="48.57661" lon="-0.59835">
        <ele>222</ele>
        <time>2012-12-30T13:36:11Z</time>
      </trkpt>
      <trkpt lat="48.57666" lon="-0.59862">
        <ele>224</ele>
        <time>2012-12-30T13:36:33Z</time>
      </trkpt>
      <trkpt lat="48.57672" lon="-0.59883">
        <ele>225</ele>
        <time>2012-12-30T13:36:49Z</time>
      </trkpt>
      <trkpt lat="48.57674" lon="-0.59893">
        <ele>225</ele>
        <time>2012-12-30T13:36:55Z</time>
      </trkpt>
      <trkpt lat="48.57673" lon="-0.59909">
        <ele>218</ele>
        <time>2012-12-30T13:37:11Z</time>
      </trkpt>
      <trkpt lat="48.57673" lon="-0.59928">
        <ele>219</ele>
        <time>2012-12-30T13:37:23Z</time>
      </trkpt>
      <trkpt lat="48.57678" lon="-0.59943">
        <ele>218</ele>
        <time>2012-12-30T13:37:33Z</time>
      </trkpt>
      <trkpt lat="48.5768" lon="-0.5995">
        <ele>223</ele>
        <time>2012-12-30T13:37:45Z</time>
      </trkpt>
      <trkpt lat="48.57684" lon="-0.59976">
        <ele>221</ele>
        <time>2012-12-30T13:38:04Z</time>
      </trkpt>
      <trkpt lat="48.57685" lon="-0.6">
        <ele>227</ele>
        <time>2012-12-30T13:38:19Z</time>
      </trkpt>
      <trkpt lat="48.57685" lon="-0.6002">
        <ele>224</ele>
        <time>2012-12-30T13:38:32Z</time>
      </trkpt>
      <trkpt lat="48.57685" lon="-0.60033">
        <ele>221</ele>
        <time>2012-12-30T13:38:41Z</time>
      </trkpt>
      <trkpt lat="48.57684" lon="-0.60036">
        <ele>223</ele>
        <time>2012-12-30T13:38:50Z</time>
      </trkpt>
      <trkpt lat="48.57683" lon="-0.60054">
        <ele>215</ele>
        <time>2012-12-30T13:40:46Z</time>
      </trkpt>
      <trkpt lat="48.57678" lon="-0.60056">
        <ele>213</ele>
        <time>2012-12-30T13:40:54Z</time>
      </trkpt>
      <trkpt lat="48.57678" lon="-0.60057">
        <ele>214</ele>
        <time>2012-12-30T13:41:02Z</time>
      </trkpt>
      <trkpt lat="48.5768" lon="-0.60099">
        <ele>220</ele>
        <time>2012-12-30T13:41:41Z</time>
      </trkpt>
      <trkpt lat="48.57674" lon="-0.60111">
        <ele>220</ele>
        <time>2012-12-30T13:41:54Z</time>
      </trkpt>
      <trkpt lat="48.57671" lon="-0.60131">
        <ele>214</ele>
        <time>2012-12-30T13:42:07Z</time>
      </trkpt>
      <trkpt lat="48.57674" lon="-0.60156">
        <ele>215</ele>
        <time>2012-12-30T13:42:24Z</time>
      </trkpt>
      <trkpt lat="48.57674" lon="-0.60171">
        <ele>213</ele>
        <time>2012-12-30T13:42:38Z</time>
      </trkpt>
      <trkpt lat="48.57678" lon="-0.60184">
        <ele>212</ele>
        <time>2012-12-30T13:42:51Z</time>
      </trkpt>
      <trkpt lat="48.57682" lon="-0.6021">
        <ele>213</ele>
        <time>2012-12-30T13:43:09Z</time>
      </trkpt>
      <trkpt lat="48.57691" lon="-0.60238">
        <ele>208</ele>
        <time>2012-12-30T13:43:31Z</time>
      </trkpt>
      <trkpt lat="48.57698" lon="-0.60259">
        <ele>213</ele>
        <time>2012-12-30T13:43:46Z</time>
      </trkpt>
      <trkpt lat="48.57703" lon="-0.60266">
        <ele>215</ele>
        <time>2012-12-30T13:43:55Z</time>
      </trkpt>
      <trkpt lat="48.57704" lon="-0.60267">
        <ele>220</ele>
        <time>2012-12-30T13:44:06Z</time>
      </trkpt>
      <trkpt lat="48.57732" lon="-0.6025">
        <ele>210</ele>
        <time>2012-12-30T13:47:22Z</time>
      </trkpt>
      <trkpt lat="48.57744" lon="-0.60251">
        <ele>219</ele>
        <time>2012-12-30T13:47:35Z</time>
      </trkpt>
      <trkpt lat="48.57746" lon="-0.60252">
        <ele>219</ele>
        <time>2012-12-30T13:47:37Z</time>
      </trkpt>
      <trkpt lat="48.57756" lon="-0.60249">
        <ele>209</ele>
        <time>2012-12-30T13:47:49Z</time>
      </trkpt>
      <trkpt lat="48.57761" lon="-0.60226">
        <ele>208</ele>
        <time>2012-12-30T13:48:09Z</time>
      </trkpt>
      <trkpt lat="48.57765" lon="-0.60209">
        <ele>212</ele>
        <time>2012-12-30T13:48:24Z</time>
      </trkpt>
      <trkpt lat="48.57765" lon="-0.60209">
        <ele>212</ele>
        <time>2012-12-30T13:50:37Z</time>
      </trkpt>
      <trkpt lat="48.57775" lon="-0.60162">
        <ele>211</ele>
        <time>2012-12-30T13:50:43Z</time>
      </trkpt>
      <trkpt lat="48.57776" lon="-0.60159">
        <ele>213</ele>
        <time>2012-12-30T13:50:47Z</time>
      </trkpt>
      <trkpt lat="48.57775" lon="-0.60162">
        <ele>211</ele>
        <time>2012-12-30T13:50:56Z</time>
      </trkpt>
      <trkpt lat="48.57804" lon="-0.6016">
        <ele>203</ele>
        <time>2012-12-30T13:51:58Z</time>
      </trkpt>
      <trkpt lat="48.57824" lon="-0.60157">
        <ele>205</ele>
        <time>2012-12-30T13:52:14Z</time>
      </trkpt>
      <trkpt lat="48.57826" lon="-0.60155">
        <ele>204</ele>
        <time>2012-12-30T13:52:17Z</time>
      </trkpt>
      <trkpt lat="48.57832" lon="-0.6015">
        <ele>205</ele>
        <time>2012-12-30T13:52:31Z</time>
      </trkpt>
      <trkpt lat="48.5784" lon="-0.60142">
        <ele>204</ele>
        <time>2012-12-30T13:52:39Z</time>
      </trkpt>
      <trkpt lat="48.57855" lon="-0.60131">
        <ele>201</ele>
        <time>2012-12-30T13:52:55Z</time>
      </trkpt>
      <trkpt lat="48.57875" lon="-0.6011">
        <ele>206</ele>
        <time>2012-12-30T13:53:17Z</time>
      </trkpt>
      <trkpt lat="48.57886" lon="-0.60105">
        <ele>207</ele>
        <time>2012-12-30T13:53:26Z</time>
      </trkpt>
      <trkpt lat="48.57886" lon="-0.60105">
        <ele>207</ele>
        <time>2012-12-30T13:53:33Z</time>
      </trkpt>
      <trkpt lat="48.57891" lon="-0.60096">
        <ele>211</ele>
        <time>2012-12-30T13:53:37Z</time>
      </trkpt>
      <trkpt lat="48.57897" lon="-0.60092">
        <ele>215</ele>
        <time>2012-12-30T13:53:45Z</time>
      </trkpt>
      <trkpt lat="48.57913" lon="-0.60081">
        <ele>205</ele>
        <time>2012-12-30T13:54:03Z</time>
      </trkpt>
      <trkpt lat="48.57932" lon="-0.60076">
        <ele>215</ele>
        <time>2012-12-30T13:54:25Z</time>
      </trkpt>
      <trkpt lat="48.57941" lon="-0.60079">
        <ele>219</ele>
        <time>2012-12-30T13:54:33Z</time>
      </trkpt>
      <trkpt lat="48.57944" lon="-0.6008">
        <ele>229</ele>
        <time>2012-12-30T13:54:39Z</time>
      </trkpt>
      <trkpt lat="48.57941" lon="-0.60079">
        <ele>219</ele>
        <time>2012-12-30T13:54:47Z</time>
      </trkpt>
      <trkpt lat="48.57948" lon="-0.60098">
        <ele>214</ele>
        <time>2012-12-30T13:55:00Z</time>
      </trkpt>
      <trkpt lat="48.57948" lon="-0.60098">
        <ele>214</ele>
        <time>2012-12-30T13:55:08Z</time>
      </trkpt>
      <trkpt lat="48.57948" lon="-0.60098">
        <ele>214</ele>
        <time>2012-12-30T13:55:09Z</time>
      </trkpt>
      <trkpt lat="48.57955" lon="-0.60122">
        <ele>209</ele>
        <time>2012-12-30T13:56:18Z</time>
      </trkpt>
      <trkpt lat="48.57976" lon="-0.60152">
        <ele>218</ele>
        <time>2012-12-30T13:57:04Z</time>
      </trkpt>
      <trkpt lat="48.57988" lon="-0.60164">
        <ele>214</ele>
        <time>2012-12-30T13:57:19Z</time>
      </trkpt>
      <trkpt lat="48.57997" lon="-0.60169">
        <ele>215</ele>
        <time>2012-12-30T13:57:34Z</time>
      </trkpt>
      <trkpt lat="48.58026" lon="-0.60176">
        <ele>225</ele>
        <time>2012-12-30T13:58:19Z</time>
      </trkpt>
      <trkpt lat="48.58055" lon="-0.60172">
        <ele>225</ele>
        <time>2012-12-30T13:59:29Z</time>
      </trkpt>
      <trkpt lat="48.58083" lon="-0.60158">
        <ele>224</ele>
        <time>2012-12-30T14:01:14Z</time>
      </trkpt>
      <trkpt lat="48.58112" lon="-0.60148">
        <ele>226</ele>
        <time>2012-12-30T14:01:58Z</time>
      </trkpt>
      <trkpt lat="48.58127" lon="-0.60139">
        <ele>229</ele>
        <time>2012-12-30T14:02:15Z</time>
      </trkpt>
      <trkpt lat="48.58144" lon="-0.60129">
        <ele>225</ele>
        <time>2012-12-30T14:02:33Z</time>
      </trkpt>
      <trkpt lat="48.58157" lon="-0.60118">
        <ele>230</ele>
        <time>2012-12-30T14:02:51Z</time>
      </trkpt>
      <trkpt lat="48.58157" lon="-0.60118">
        <ele>230</ele>
        <time>2012-12-30T14:02:58Z</time>
      </trkpt>
      <trkpt lat="48.58167" lon="-0.60102">
        <ele>226</ele>
        <time>2012-12-30T14:03:10Z</time>
      </trkpt>
      <trkpt lat="48.58177" lon="-0.60094">
        <ele>227</ele>
        <time>2012-12-30T14:03:22Z</time>
      </trkpt>
      <trkpt lat="48.58203" lon="-0.60074">
        <ele>232</ele>
        <time>2012-12-30T14:03:56Z</time>
      </trkpt>
      <trkpt lat="48.58213" lon="-0.6007">
        <ele>228</ele>
        <time>2012-12-30T14:04:07Z</time>
      </trkpt>
      <trkpt lat="48.58227" lon="-0.60058">
        <ele>231</ele>
        <time>2012-12-30T14:04:26Z</time>
      </trkpt>
      <trkpt lat="48.58239" lon="-0.6005">
        <ele>224</ele>
        <time>2012-12-30T14:04:41Z</time>
      </trkpt>
      <trkpt lat="48.58252" lon="-0.60038">
        <ele>226</ele>
        <time>2012-12-30T14:04:57Z</time>
      </trkpt>
      <trkpt lat="48.58267" lon="-0.60024">
        <ele>234</ele>
        <time>2012-12-30T14:05:16Z</time>
      </trkpt>
      <trkpt lat="48.58284" lon="-0.60014">
        <ele>223</ele>
        <time>2012-12-30T14:05:32Z</time>
      </trkpt>
      <trkpt lat="48.58296" lon="-0.60024">
        <ele>234</ele>
        <time>2012-12-30T14:05:48Z</time>
      </trkpt>
      <trkpt lat="48.58304" lon="-0.60039">
        <ele>234</ele>
        <time>2012-12-30T14:05:58Z</time>
      </trkpt>
      <trkpt lat="48.58306" lon="-0.60046">
        <ele>231</ele>
        <time>2012-12-30T14:06:03Z</time>
      </trkpt>
      <trkpt lat="48.5831" lon="-0.60045">
        <ele>230</ele>
        <time>2012-12-30T14:06:13Z</time>
      </trkpt>
      <trkpt lat="48.58309" lon="-0.60067">
        <ele>238</ele>
        <time>2012-12-30T14:07:53Z</time>
      </trkpt>
      <trkpt lat="48.58311" lon="-0.60074">
        <ele>237</ele>
        <time>2012-12-30T14:07:57Z</time>
      </trkpt>
      <trkpt lat="48.58311" lon="-0.60075">
        <ele>243</ele>
        <time>2012-12-30T14:08:05Z</time>
      </trkpt>
      <trkpt lat="48.58314" lon="-0.60094">
        <ele>233</ele>
        <time>2012-12-30T14:08:35Z</time>
      </trkpt>
      <trkpt lat="48.58322" lon="-0.60124">
        <ele>235</ele>
        <time>2012-12-30T14:08:52Z</time>
      </trkpt>
      <trkpt lat="48.58326" lon="-0.60139">
        <ele>236</ele>
        <time>2012-12-30T14:09:03Z</time>
      </trkpt>
      <trkpt lat="48.58331" lon="-0.60158">
        <ele>237</ele>
        <time>2012-12-30T14:09:21Z</time>
      </trkpt>
      <trkpt lat="48.58343" lon="-0.6018">
        <ele>249</ele>
        <time>2012-12-30T14:09:39Z</time>
      </trkpt>
      <trkpt lat="48.58345" lon="-0.602">
        <ele>235</ele>
        <time>2012-12-30T14:09:57Z</time>
      </trkpt>
      <trkpt lat="48.58355" lon="-0.60215">
        <ele>235</ele>
        <time>2012-12-30T14:10:11Z</time>
      </trkpt>
      <trkpt lat="48.58368" lon="-0.60236">
        <ele>235</ele>
        <time>2012-12-30T14:10:27Z</time>
      </trkpt>
      <trkpt lat="48.58379" lon="-0.60253">
        <ele>246</ele>
        <time>2012-12-30T14:10:42Z</time>
      </trkpt>
      <trkpt lat="48.58386" lon="-0.60259">
        <ele>246</ele>
        <time>2012-12-30T14:10:53Z</time>
      </trkpt>
      <trkpt lat="48.58389" lon="-0.60263">
        <ele>236</ele>
        <time>2012-12-30T14:11:01Z</time>
      </trkpt>
      <trkpt lat="48.58406" lon="-0.603">
        <ele>239</ele>
        <time>2012-12-30T14:12:09Z</time>
      </trkpt>
      <trkpt lat="48.58414" lon="-0.60316">
        <ele>241</ele>
        <time>2012-12-30T14:12:24Z</time>
      </trkpt>
      <trkpt lat="48.58425" lon="-0.60337">
        <ele>242</ele>
        <time>2012-12-30T14:12:41Z</time>
      </trkpt>
      <trkpt lat="48.58436" lon="-0.60356">
        <ele>237</ele>
        <time>2012-12-30T14:12:58Z</time>
      </trkpt>
      <trkpt lat="48.58447" lon="-0.60385">
        <ele>240</ele>
        <time>2012-12-30T14:13:18Z</time>
      </trkpt>
      <trkpt lat="48.58458" lon="-0.60403">
        <ele>243</ele>
        <time>2012-12-30T14:13:34Z</time>
      </trkpt>
      <trkpt lat="48.58468" lon="-0.6043">
        <ele>240</ele>
        <time>2012-12-30T14:13:51Z</time>
      </trkpt>
      <trkpt lat="48.58472" lon="-0.6044">
        <ele>237</ele>
        <time>2012-12-30T14:14:02Z</time>
      </trkpt>
      <trkpt lat="48.58479" lon="-0.60469">
        <ele>237</ele>
        <time>2012-12-30T14:14:24Z</time>
      </trkpt>
      <trkpt lat="48.58485" lon="-0.6049">
        <ele>237</ele>
        <time>2012-12-30T14:14:39Z</time>
      </trkpt>
      <trkpt lat="48.58493" lon="-0.60516">
        <ele>237</ele>
        <time>2012-12-30T14:14:57Z</time>
      </trkpt>
      <trkpt lat="48.58498" lon="-0.60545">
        <ele>239</ele>
        <time>2012-12-30T14:15:14Z</time>
      </trkpt>
      <trkpt lat="48.58504" lon="-0.60561">
        <ele>238</ele>
        <time>2012-12-30T14:15:27Z</time>
      </trkpt>
      <trkpt lat="48.58512" lon="-0.60592">
        <ele>235</ele>
        <time>2012-12-30T14:15:47Z</time>
      </trkpt>
      <trkpt lat="48.58517" lon="-0.60617">
        <ele>235</ele>
        <time>2012-12-30T14:16:04Z</time>
      </trkpt>
      <trkpt lat="48.58519" lon="-0.60634">
        <ele>231</ele>
        <time>2012-12-30T14:16:16Z</time>
      </trkpt>
      <trkpt lat="48.58528" lon="-0.60658">
        <ele>236</ele>
        <time>2012-12-30T14:16:33Z</time>
      </trkpt>
      <trkpt lat="48.58531" lon="-0.60677">
        <ele>235</ele>
        <time>2012-12-30T14:16:49Z</time>
      </trkpt>
      <trkpt lat="48.58541" lon="-0.60716">
        <ele>238</ele>
        <time>2012-12-30T14:17:23Z</time>
      </trkpt>
      <trkpt lat="48.58545" lon="-0.6073">
        <ele>236</ele>
        <time>2012-12-30T14:17:32Z</time>
      </trkpt>
      <trkpt lat="48.58551" lon="-0.60752">
        <ele>230</ele>
        <time>2012-12-30T14:17:46Z</time>
      </trkpt>
      <trkpt lat="48.58553" lon="-0.60765">
        <ele>235</ele>
        <time>2012-12-30T14:17:54Z</time>
      </trkpt>
      <trkpt lat="48.58556" lon="-0.60789">
        <ele>237</ele>
        <time>2012-12-30T14:18:12Z</time>
      </trkpt>
      <trkpt lat="48.58561" lon="-0.6081">
        <ele>236</ele>
        <time>2012-12-30T14:18:27Z</time>
      </trkpt>
      <trkpt lat="48.5857" lon="-0.60832">
        <ele>241</ele>
        <time>2012-12-30T14:18:43Z</time>
      </trkpt>
      <trkpt lat="48.58576" lon="-0.60858">
        <ele>239</ele>
        <time>2012-12-30T14:19:00Z</time>
      </trkpt>
      <trkpt lat="48.58581" lon="-0.6089">
        <ele>238</ele>
        <time>2012-12-30T14:19:19Z</time>
      </trkpt>
      <trkpt lat="48.58584" lon="-0.60905">
        <ele>237</ele>
        <time>2012-12-30T14:19:29Z</time>
      </trkpt>
      <trkpt lat="48.5859" lon="-0.60927">
        <ele>238</ele>
        <time>2012-12-30T14:19:45Z</time>
      </trkpt>
      <trkpt lat="48.58596" lon="-0.60945">
        <ele>241</ele>
        <time>2012-12-30T14:19:59Z</time>
      </trkpt>
      <trkpt lat="48.58603" lon="-0.60968">
        <ele>241</ele>
        <time>2012-12-30T14:20:14Z</time>
      </trkpt>
      <trkpt lat="48.58604" lon="-0.6097">
        <ele>240</ele>
        <time>2012-12-30T14:20:22Z</time>
      </trkpt>
      <trkpt lat="48.58605" lon="-0.60992">
        <ele>242</ele>
        <time>2012-12-30T14:21:07Z</time>
      </trkpt>
      <trkpt lat="48.58611" lon="-0.61009">
        <ele>233</ele>
        <time>2012-12-30T14:21:20Z</time>
      </trkpt>
      <trkpt lat="48.5862" lon="-0.61036">
        <ele>239</ele>
        <time>2012-12-30T14:21:37Z</time>
      </trkpt>
      <trkpt lat="48.58627" lon="-0.6106">
        <ele>241</ele>
        <time>2012-12-30T14:21:56Z</time>
      </trkpt>
      <trkpt lat="48.58639" lon="-0.61102">
        <ele>240</ele>
        <time>2012-12-30T14:22:30Z</time>
      </trkpt>
      <trkpt lat="48.58645" lon="-0.61127">
        <ele>243</ele>
        <time>2012-12-30T14:22:48Z</time>
      </trkpt>
      <trkpt lat="48.5865" lon="-0.61145">
        <ele>239</ele>
        <time>2012-12-30T14:23:03Z</time>
      </trkpt>
      <trkpt lat="48.58656" lon="-0.61169">
        <ele>240</ele>
        <time>2012-12-30T14:23:19Z</time>
      </trkpt>
      <trkpt lat="48.58661" lon="-0.61195">
        <ele>238</ele>
        <time>2012-12-30T14:23:38Z</time>
      </trkpt>
      <trkpt lat="48.58664" lon="-0.61214">
        <ele>238</ele>
        <time>2012-12-30T14:23:52Z</time>
      </trkpt>
      <trkpt lat="48.58667" lon="-0.61236">
        <ele>236</ele>
        <time>2012-12-30T14:24:09Z</time>
      </trkpt>
      <trkpt lat="48.58672" lon="-0.61263">
        <ele>243</ele>
        <time>2012-12-30T14:24:28Z</time>
      </trkpt>
      <trkpt lat="48.58681" lon="-0.61288">
        <ele>234</ele>
        <time>2012-12-30T14:24:44Z</time>
      </trkpt>
      <trkpt lat="48.58688" lon="-0.61308">
        <ele>236</ele>
        <time>2012-12-30T14:24:56Z</time>
      </trkpt>
      <trkpt lat="48.58696" lon="-0.61334">
        <ele>236</ele>
        <time>2012-12-30T14:25:13Z</time>
      </trkpt>
      <trkpt lat="48.58701" lon="-0.61357">
        <ele>238</ele>
        <time>2012-12-30T14:25:25Z</time>
      </trkpt>
      <trkpt lat="48.58706" lon="-0.61382">
        <ele>232</ele>
        <time>2012-12-30T14:25:42Z</time>
      </trkpt>
      <trkpt lat="48.58708" lon="-0.61399">
        <ele>232</ele>
        <time>2012-12-30T14:25:53Z</time>
      </trkpt>
      <trkpt lat="48.58712" lon="-0.61401">
        <ele>232</ele>
        <time>2012-12-30T14:26:01Z</time>
      </trkpt>
      <trkpt lat="48.58732" lon="-0.61392">
        <ele>234</ele>
        <time>2012-12-30T14:27:00Z</time>
      </trkpt>
      <trkpt lat="48.58756" lon="-0.61384">
        <ele>234</ele>
        <time>2012-12-30T14:27:51Z</time>
      </trkpt>
      <trkpt lat="48.58756" lon="-0.61384">
        <ele>234</ele>
        <time>2012-12-30T14:27:59Z</time>
      </trkpt>
      <trkpt lat="48.5876" lon="-0.6138">
        <ele>234</ele>
        <time>2012-12-30T14:28:00Z</time>
      </trkpt>
      <trkpt lat="48.58785" lon="-0.61374">
        <ele>229</ele>
        <time>2012-12-30T14:28:40Z</time>
      </trkpt>
      <trkpt lat="48.58799" lon="-0.61369">
        <ele>221</ele>
        <time>2012-12-30T14:28:49Z</time>
      </trkpt>
      <trkpt lat="48.58795" lon="-0.61364">
        <ele>236</ele>
        <time>2012-12-30T14:28:57Z</time>
      </trkpt>
      <trkpt lat="48.58801" lon="-0.61338">
        <ele>238</ele>
        <time>2012-12-30T14:30:21Z</time>
      </trkpt>
      <trkpt lat="48.58819" lon="-0.61308">
        <ele>238</ele>
        <time>2012-12-30T14:31:48Z</time>
      </trkpt>
      <trkpt lat="48.58837" lon="-0.6128">
        <ele>242</ele>
        <time>2012-12-30T14:33:12Z</time>
      </trkpt>
      <trkpt lat="48.58852" lon="-0.61248">
        <ele>243</ele>
        <time>2012-12-30T14:33:45Z</time>
      </trkpt>
      <trkpt lat="48.5886" lon="-0.61241">
        <ele>240</ele>
        <time>2012-12-30T14:33:54Z</time>
      </trkpt>
      <trkpt lat="48.58863" lon="-0.6123">
        <ele>253</ele>
        <time>2012-12-30T14:34:07Z</time>
      </trkpt>
      <trkpt lat="48.58864" lon="-0.61224">
        <ele>251</ele>
        <time>2012-12-30T14:34:17Z</time>
      </trkpt>
      <trkpt lat="48.58866" lon="-0.61219">
        <ele>253</ele>
        <time>2012-12-30T14:34:26Z</time>
      </trkpt>
      <trkpt lat="48.58893" lon="-0.61193">
        <ele>258</ele>
        <time>2012-12-30T14:35:55Z</time>
      </trkpt>
      <trkpt lat="48.58901" lon="-0.61185">
        <ele>268</ele>
        <time>2012-12-30T14:36:06Z</time>
      </trkpt>
      <trkpt lat="48.58901" lon="-0.61185">
        <ele>268</ele>
        <time>2012-12-30T14:36:11Z</time>
      </trkpt>
      <trkpt lat="48.58901" lon="-0.61185">
        <ele>268</ele>
        <time>2012-12-30T14:36:12Z</time>
      </trkpt>
      <trkpt lat="48.58916" lon="-0.61177">
        <ele>269</ele>
        <time>2012-12-30T14:36:28Z</time>
      </trkpt>
      <trkpt lat="48.58924" lon="-0.61172">
        <ele>262</ele>
        <time>2012-12-30T14:36:37Z</time>
      </trkpt>
      <trkpt lat="48.58934" lon="-0.61164">
        <ele>255</ele>
        <time>2012-12-30T14:36:53Z</time>
      </trkpt>
      <trkpt lat="48.58943" lon="-0.61161">
        <ele>264</ele>
        <time>2012-12-30T14:37:02Z</time>
      </trkpt>
      <trkpt lat="48.58956" lon="-0.61147">
        <ele>275</ele>
        <time>2012-12-30T14:37:17Z</time>
      </trkpt>
      <trkpt lat="48.58959" lon="-0.61142">
        <ele>266</ele>
        <time>2012-12-30T14:37:20Z</time>
      </trkpt>
      <trkpt lat="48.58957" lon="-0.61129">
        <ele>263</ele>
        <time>2012-12-30T14:37:33Z</time>
      </trkpt>
      <trkpt lat="48.58957" lon="-0.61129">
        <ele>263</ele>
        <time>2012-12-30T14:37:40Z</time>
      </trkpt>
      <trkpt lat="48.58957" lon="-0.61114">
        <ele>269</ele>
        <time>2012-12-30T14:37:49Z</time>
      </trkpt>
      <trkpt lat="48.58947" lon="-0.61094">
        <ele>269</ele>
        <time>2012-12-30T14:38:07Z</time>
      </trkpt>
      <trkpt lat="48.58936" lon="-0.6107">
        <ele>267</ele>
        <time>2012-12-30T14:38:27Z</time>
      </trkpt>
      <trkpt lat="48.5893" lon="-0.61041">
        <ele>273</ele>
        <time>2012-12-30T14:38:49Z</time>
      </trkpt>
      <trkpt lat="48.58922" lon="-0.61014">
        <ele>267</ele>
        <time>2012-12-30T14:39:06Z</time>
      </trkpt>
      <trkpt lat="48.58914" lon="-0.60994">
        <ele>271</ele>
        <time>2012-12-30T14:39:25Z</time>
      </trkpt>
      <trkpt lat="48.58908" lon="-0.60973">
        <ele>274</ele>
        <time>2012-12-30T14:39:40Z</time>
      </trkpt>
      <trkpt lat="48.58907" lon="-0.60955">
        <ele>275</ele>
        <time>2012-12-30T14:39:55Z</time>
      </trkpt>
      <trkpt lat="48.58905" lon="-0.60938">
        <ele>277</ele>
        <time>2012-12-30T14:40:06Z</time>
      </trkpt>
      <trkpt lat="48.58905" lon="-0.60919">
        <ele>284</ele>
        <time>2012-12-30T14:40:20Z</time>
      </trkpt>
      <trkpt lat="48.589" lon="-0.609">
        <ele>281</ele>
        <time>2012-12-30T14:40:31Z</time>
      </trkpt>
      <trkpt lat="48.58896" lon="-0.6088">
        <ele>280</ele>
        <time>2012-12-30T14:40:48Z</time>
      </trkpt>
      <trkpt lat="48.58893" lon="-0.60849">
        <ele>281</ele>
        <time>2012-12-30T14:41:06Z</time>
      </trkpt>
      <trkpt lat="48.58892" lon="-0.60832">
        <ele>281</ele>
        <time>2012-12-30T14:41:18Z</time>
      </trkpt>
      <trkpt lat="48.58886" lon="-0.6081">
        <ele>272</ele>
        <time>2012-12-30T14:41:35Z</time>
      </trkpt>
      <trkpt lat="48.58885" lon="-0.60785">
        <ele>271</ele>
        <time>2012-12-30T14:41:55Z</time>
      </trkpt>
      <trkpt lat="48.58882" lon="-0.60763">
        <ele>283</ele>
        <time>2012-12-30T14:42:11Z</time>
      </trkpt>
      <trkpt lat="48.58877" lon="-0.60739">
        <ele>273</ele>
        <time>2012-12-30T14:42:28Z</time>
      </trkpt>
      <trkpt lat="48.58866" lon="-0.6073">
        <ele>276</ele>
        <time>2012-12-30T14:42:45Z</time>
      </trkpt>
      <trkpt lat="48.5887" lon="-0.60693">
        <ele>279</ele>
        <time>2012-12-30T14:43:23Z</time>
      </trkpt>
      <trkpt lat="48.58871" lon="-0.60673">
        <ele>276</ele>
        <time>2012-12-30T14:43:36Z</time>
      </trkpt>
      <trkpt lat="48.58869" lon="-0.60651">
        <ele>271</ele>
        <time>2012-12-30T14:43:54Z</time>
      </trkpt>
      <trkpt lat="48.58863" lon="-0.60633">
        <ele>281</ele>
        <time>2012-12-30T14:44:07Z</time>
      </trkpt>
      <trkpt lat="48.58864" lon="-0.60618">
        <ele>283</ele>
        <time>2012-12-30T14:44:21Z</time>
      </trkpt>
      <trkpt lat="48.58861" lon="-0.60588">
        <ele>282</ele>
        <time>2012-12-30T14:44:39Z</time>
      </trkpt>
      <trkpt lat="48.58858" lon="-0.60556">
        <ele>289</ele>
        <time>2012-12-30T14:44:59Z</time>
      </trkpt>
      <trkpt lat="48.58858" lon="-0.60538">
        <ele>289</ele>
        <time>2012-12-30T14:45:14Z</time>
      </trkpt>
      <trkpt lat="48.58859" lon="-0.60524">
        <ele>289</ele>
        <time>2012-12-30T14:45:24Z</time>
      </trkpt>
      <trkpt lat="48.58857" lon="-0.60516">
        <ele>290</ele>
        <time>2012-12-30T14:45:28Z</time>
      </trkpt>
      <trkpt lat="48.58855" lon="-0.60503">
        <ele>281</ele>
        <time>2012-12-30T14:45:39Z</time>
      </trkpt>
      <trkpt lat="48.58851" lon="-0.60487">
        <ele>281</ele>
        <time>2012-12-30T14:45:53Z</time>
      </trkpt>
      <trkpt lat="48.58843" lon="-0.60441">
        <ele>300</ele>
        <time>2012-12-30T14:46:40Z</time>
      </trkpt>
      <trkpt lat="48.5884" lon="-0.6041">
        <ele>295</ele>
        <time>2012-12-30T14:47:00Z</time>
      </trkpt>
      <trkpt lat="48.58841" lon="-0.60399">
        <ele>288</ele>
        <time>2012-12-30T14:47:10Z</time>
      </trkpt>
      <trkpt lat="48.58841" lon="-0.60399">
        <ele>282</ele>
        <time>2012-12-30T14:47:18Z</time>
      </trkpt>
      <trkpt lat="48.58833" lon="-0.60358">
        <ele>288</ele>
        <time>2012-12-30T14:47:50Z</time>
      </trkpt>
      <trkpt lat="48.58827" lon="-0.60337">
        <ele>282</ele>
        <time>2012-12-30T14:48:05Z</time>
      </trkpt>
      <trkpt lat="48.58823" lon="-0.60315">
        <ele>287</ele>
        <time>2012-12-30T14:48:24Z</time>
      </trkpt>
      <trkpt lat="48.58823" lon="-0.60283">
        <ele>292</ele>
        <time>2012-12-30T14:48:45Z</time>
      </trkpt>
      <trkpt lat="48.58829" lon="-0.60258">
        <ele>284</ele>
        <time>2012-12-30T14:49:03Z</time>
      </trkpt>
      <trkpt lat="48.58817" lon="-0.60217">
        <ele>283</ele>
        <time>2012-12-30T14:49:44Z</time>
      </trkpt>
      <trkpt lat="48.58814" lon="-0.60185">
        <ele>283</ele>
        <time>2012-12-30T14:50:02Z</time>
      </trkpt>
      <trkpt lat="48.58811" lon="-0.60165">
        <ele>290</ele>
        <time>2012-12-30T14:50:17Z</time>
      </trkpt>
      <trkpt lat="48.58802" lon="-0.60148">
        <ele>282</ele>
        <time>2012-12-30T14:50:28Z</time>
      </trkpt>
      <trkpt lat="48.58792" lon="-0.60126">
        <ele>288</ele>
        <time>2012-12-30T14:50:44Z</time>
      </trkpt>
      <trkpt lat="48.5879" lon="-0.60098">
        <ele>292</ele>
        <time>2012-12-30T14:51:03Z</time>
      </trkpt>
      <trkpt lat="48.58788" lon="-0.60067">
        <ele>293</ele>
        <time>2012-12-30T14:51:22Z</time>
      </trkpt>
      <trkpt lat="48.58786" lon="-0.60033">
        <ele>287</ele>
        <time>2012-12-30T14:51:39Z</time>
      </trkpt>
      <trkpt lat="48.58786" lon="-0.6003">
        <ele>286</ele>
        <time>2012-12-30T14:51:41Z</time>
      </trkpt>
      <trkpt lat="48.58788" lon="-0.60017">
        <ele>285</ele>
        <time>2012-12-30T14:51:54Z</time>
      </trkpt>
      <trkpt lat="48.58778" lon="-0.59992">
        <ele>280</ele>
        <time>2012-12-30T14:52:11Z</time>
      </trkpt>
      <trkpt lat="48.58772" lon="-0.59981">
        <ele>286</ele>
        <time>2012-12-30T14:52:18Z</time>
      </trkpt>
      <trkpt lat="48.58766" lon="-0.5996">
        <ele>291</ele>
        <time>2012-12-30T14:52:33Z</time>
      </trkpt>
      <trkpt lat="48.5876" lon="-0.59933">
        <ele>286</ele>
        <time>2012-12-30T14:52:51Z</time>
      </trkpt>
      <trkpt lat="48.58756" lon="-0.59919">
        <ele>288</ele>
        <time>2012-12-30T14:53:01Z</time>
      </trkpt>
      <trkpt lat="48.58751" lon="-0.59898">
        <ele>287</ele>
        <time>2012-12-30T14:53:16Z</time>
      </trkpt>
      <trkpt lat="48.58743" lon="-0.59866">
        <ele>287</ele>
        <time>2012-12-30T14:53:32Z</time>
      </trkpt>
      <trkpt lat="48.5874" lon="-0.59841">
        <ele>288</ele>
        <time>2012-12-30T14:53:47Z</time>
      </trkpt>
      <trkpt lat="48.58736" lon="-0.59821">
        <ele>288</ele>
        <time>2012-12-30T14:53:59Z</time>
      </trkpt>
      <trkpt lat="48.58733" lon="-0.59796">
        <ele>288</ele>
        <time>2012-12-30T14:54:15Z</time>
      </trkpt>
      <trkpt lat="48.58727" lon="-0.59772">
        <ele>287</ele>
        <time>2012-12-30T14:54:29Z</time>
      </trkpt>
      <trkpt lat="48.58727" lon="-0.59772">
        <ele>287</ele>
        <time>2012-12-30T14:54:34Z</time>
      </trkpt>
      <trkpt lat="48.58724" lon="-0.59759">
        <ele>293</ele>
        <time>2012-12-30T14:54:39Z</time>
      </trkpt>
      <trkpt lat="48.58717" lon="-0.59733">
        <ele>291</ele>
        <time>2012-12-30T14:54:56Z</time>
      </trkpt>
      <trkpt lat="48.58711" lon="-0.5971">
        <ele>293</ele>
        <time>2012-12-30T14:55:10Z</time>
      </trkpt>
      <trkpt lat="48.58709" lon="-0.59685">
        <ele>290</ele>
        <time>2012-12-30T14:55:24Z</time>
      </trkpt>
      <trkpt lat="48.58707" lon="-0.5967">
        <ele>290</ele>
        <time>2012-12-30T14:55:33Z</time>
      </trkpt>
      <trkpt lat="48.58702" lon="-0.5965">
        <ele>280</ele>
        <time>2012-12-30T14:55:46Z</time>
      </trkpt>
      <trkpt lat="48.58696" lon="-0.59627">
        <ele>283</ele>
        <time>2012-12-30T14:56:03Z</time>
      </trkpt>
      <trkpt lat="48.58692" lon="-0.5961">
        <ele>277</ele>
        <time>2012-12-30T14:56:13Z</time>
      </trkpt>
      <trkpt lat="48.58688" lon="-0.59595">
        <ele>283</ele>
        <time>2012-12-30T14:56:23Z</time>
      </trkpt>
      <trkpt lat="48.58683" lon="-0.59577">
        <ele>282</ele>
        <time>2012-12-30T14:56:34Z</time>
      </trkpt>
      <trkpt lat="48.58676" lon="-0.59557">
        <ele>280</ele>
        <time>2012-12-30T14:56:49Z</time>
      </trkpt>
      <trkpt lat="48.5867" lon="-0.59529">
        <ele>281</ele>
        <time>2012-12-30T14:57:04Z</time>
      </trkpt>
      <trkpt lat="48.58674" lon="-0.5952">
        <ele>289</ele>
        <time>2012-12-30T14:57:20Z</time>
      </trkpt>
      <trkpt lat="48.58587" lon="-0.59582">
        <ele>285</ele>
        <time>2012-12-30T14:58:33Z</time>
      </trkpt>
      <trkpt lat="48.58637" lon="-0.59547">
        <ele>287</ele>
        <time>2012-12-30T14:58:59Z</time>
      </trkpt>
      <trkpt lat="48.58637" lon="-0.59547">
        <ele>287</ele>
        <time>2012-12-30T14:59:15Z</time>
      </trkpt>
      <trkpt lat="48.58644" lon="-0.59501">
        <ele>289</ele>
        <time>2012-12-30T14:59:32Z</time>
      </trkpt>
      <trkpt lat="48.5864" lon="-0.59483">
        <ele>288</ele>
        <time>2012-12-30T14:59:34Z</time>
      </trkpt>
      <trkpt lat="48.5864" lon="-0.59483">
        <ele>288</ele>
        <time>2012-12-30T14:59:41Z</time>
      </trkpt>
      <trkpt lat="48.58638" lon="-0.59439">
        <ele>287</ele>
        <time>2012-12-30T15:00:04Z</time>
      </trkpt>
      <trkpt lat="48.58637" lon="-0.59404">
        <ele>283</ele>
        <time>2012-12-30T15:00:13Z</time>
      </trkpt>
      <trkpt lat="48.58637" lon="-0.59389">
        <ele>273</ele>
        <time>2012-12-30T15:00:20Z</time>
      </trkpt>
      <trkpt lat="48.58635" lon="-0.59376">
        <ele>279</ele>
        <time>2012-12-30T15:00:29Z</time>
      </trkpt>
      <trkpt lat="48.58624" lon="-0.59333">
        <ele>284</ele>
        <time>2012-12-30T15:00:58Z</time>
      </trkpt>
      <trkpt lat="48.58613" lon="-0.59293">
        <ele>279</ele>
        <time>2012-12-30T15:01:22Z</time>
      </trkpt>
      <trkpt lat="48.58613" lon="-0.59293">
        <ele>279</ele>
        <time>2012-12-30T15:01:29Z</time>
      </trkpt>
      <trkpt lat="48.58613" lon="-0.59293">
        <ele>279</ele>
        <time>2012-12-30T15:01:30Z</time>
      </trkpt>
      <trkpt lat="48.58604" lon="-0.59232">
        <ele>278</ele>
        <time>2012-12-30T15:02:18Z</time>
      </trkpt>
      <trkpt lat="48.58601" lon="-0.5922">
        <ele>275</ele>
        <time>2012-12-30T15:02:22Z</time>
      </trkpt>
      <trkpt lat="48.58601" lon="-0.5922">
        <ele>275</ele>
        <time>2012-12-30T15:02:32Z</time>
      </trkpt>
      <trkpt lat="48.58584" lon="-0.59178">
        <ele>275</ele>
        <time>2012-12-30T15:03:05Z</time>
      </trkpt>
      <trkpt lat="48.58584" lon="-0.59178">
        <ele>275</ele>
        <time>2012-12-30T15:03:13Z</time>
      </trkpt>
      <trkpt lat="48.58584" lon="-0.59178">
        <ele>275</ele>
        <time>2012-12-30T15:03:15Z</time>
      </trkpt>
      <trkpt lat="48.58571" lon="-0.59132">
        <ele>280</ele>
        <time>2012-12-30T15:03:42Z</time>
      </trkpt>
      <trkpt lat="48.58569" lon="-0.59109">
        <ele>280</ele>
        <time>2012-12-30T15:03:58Z</time>
      </trkpt>
      <trkpt lat="48.58575" lon="-0.59071">
        <ele>263</ele>
        <time>2012-12-30T15:04:19Z</time>
      </trkpt>
      <trkpt lat="48.58575" lon="-0.59048">
        <ele>260</ele>
        <time>2012-12-30T15:04:36Z</time>
      </trkpt>
      <trkpt lat="48.58578" lon="-0.59026">
        <ele>260</ele>
        <time>2012-12-30T15:04:50Z</time>
      </trkpt>
      <trkpt lat="48.58577" lon="-0.59017">
        <ele>267</ele>
        <time>2012-12-30T15:04:57Z</time>
      </trkpt>
      <trkpt lat="48.5858" lon="-0.59008">
        <ele>263</ele>
        <time>2012-12-30T15:05:13Z</time>
      </trkpt>
      <trkpt lat="48.58585" lon="-0.58964">
        <ele>264</ele>
        <time>2012-12-30T15:05:55Z</time>
      </trkpt>
      <trkpt lat="48.5859" lon="-0.58946">
        <ele>266</ele>
        <time>2012-12-30T15:06:10Z</time>
      </trkpt>
      <trkpt lat="48.5859" lon="-0.58946">
        <ele>266</ele>
        <time>2012-12-30T15:08:11Z</time>
      </trkpt>
      <trkpt lat="48.58575" lon="-0.58918">
        <ele>247</ele>
        <time>2012-12-30T15:08:36Z</time>
      </trkpt>
      <trkpt lat="48.5856" lon="-0.58915">
        <ele>251</ele>
        <time>2012-12-30T15:08:52Z</time>
      </trkpt>
      <trkpt lat="48.58548" lon="-0.589">
        <ele>253</ele>
        <time>2012-12-30T15:09:09Z</time>
      </trkpt>
      <trkpt lat="48.58539" lon="-0.58881">
        <ele>257</ele>
        <time>2012-12-30T15:09:24Z</time>
      </trkpt>
      <trkpt lat="48.58531" lon="-0.5886">
        <ele>252</ele>
        <time>2012-12-30T15:09:38Z</time>
      </trkpt>
      <trkpt lat="48.58528" lon="-0.58837">
        <ele>251</ele>
        <time>2012-12-30T15:09:56Z</time>
      </trkpt>
      <trkpt lat="48.58518" lon="-0.58821">
        <ele>252</ele>
        <time>2012-12-30T15:10:08Z</time>
      </trkpt>
      <trkpt lat="48.58514" lon="-0.58816">
        <ele>256</ele>
        <time>2012-12-30T15:10:13Z</time>
      </trkpt>
      <trkpt lat="48.58509" lon="-0.588">
        <ele>255</ele>
        <time>2012-12-30T15:10:26Z</time>
      </trkpt>
      <trkpt lat="48.58509" lon="-0.58794">
        <ele>257</ele>
        <time>2012-12-30T15:10:31Z</time>
      </trkpt>
      <trkpt lat="48.58513" lon="-0.58793">
        <ele>256</ele>
        <time>2012-12-30T15:10:44Z</time>
      </trkpt>
      <trkpt lat="48.58529" lon="-0.58791">
        <ele>255</ele>
        <time>2012-12-30T15:11:02Z</time>
      </trkpt>
      <trkpt lat="48.58544" lon="-0.5879">
        <ele>257</ele>
        <time>2012-12-30T15:11:19Z</time>
      </trkpt>
      <trkpt lat="48.58544" lon="-0.5879">
        <ele>257</ele>
        <time>2012-12-30T15:11:27Z</time>
      </trkpt>
      <trkpt lat="48.58544" lon="-0.5879">
        <ele>257</ele>
        <time>2012-12-30T15:11:28Z</time>
      </trkpt>
      <trkpt lat="48.58553" lon="-0.58801">
        <ele>256</ele>
        <time>2012-12-30T15:11:32Z</time>
      </trkpt>
      <trkpt lat="48.58557" lon="-0.58804">
        <ele>255</ele>
        <time>2012-12-30T15:11:37Z</time>
      </trkpt>
      <trkpt lat="48.58563" lon="-0.58795">
        <ele>255</ele>
        <time>2012-12-30T15:11:48Z</time>
      </trkpt>
      <trkpt lat="48.58569" lon="-0.58771">
        <ele>256</ele>
        <time>2012-12-30T15:12:08Z</time>
      </trkpt>
      <trkpt lat="48.58577" lon="-0.58742">
        <ele>262</ele>
        <time>2012-12-30T15:12:21Z</time>
      </trkpt>
      <trkpt lat="48.58592" lon="-0.58727">
        <ele>250</ele>
        <time>2012-12-30T15:12:26Z</time>
      </trkpt>
      <trkpt lat="48.58602" lon="-0.58722">
        <ele>241</ele>
        <time>2012-12-30T15:12:33Z</time>
      </trkpt>
      <trkpt lat="48.58602" lon="-0.58722">
        <ele>241</ele>
        <time>2012-12-30T15:12:40Z</time>
      </trkpt>
      <trkpt lat="48.58602" lon="-0.58722">
        <ele>241</ele>
        <time>2012-12-30T15:12:41Z</time>
      </trkpt>
      <trkpt lat="48.58589" lon="-0.58715">
        <ele>260</ele>
        <time>2012-12-30T15:12:50Z</time>
      </trkpt>
      <trkpt lat="48.58583" lon="-0.58702">
        <ele>263</ele>
        <time>2012-12-30T15:13:01Z</time>
      </trkpt>
      <trkpt lat="48.5858" lon="-0.58696">
        <ele>266</ele>
        <time>2012-12-30T15:13:07Z</time>
      </trkpt>
      <trkpt lat="48.58578" lon="-0.58685">
        <ele>275</ele>
        <time>2012-12-30T15:13:21Z</time>
      </trkpt>
      <trkpt lat="48.58576" lon="-0.5866">
        <ele>271</ele>
        <time>2012-12-30T15:13:36Z</time>
      </trkpt>
      <trkpt lat="48.58575" lon="-0.58631">
        <ele>269</ele>
        <time>2012-12-30T15:13:51Z</time>
      </trkpt>
      <trkpt lat="48.58574" lon="-0.58601">
        <ele>277</ele>
        <time>2012-12-30T15:14:09Z</time>
      </trkpt>
      <trkpt lat="48.58572" lon="-0.58584">
        <ele>276</ele>
        <time>2012-12-30T15:14:24Z</time>
      </trkpt>
      <trkpt lat="48.5857" lon="-0.58564">
        <ele>277</ele>
        <time>2012-12-30T15:14:34Z</time>
      </trkpt>
      <trkpt lat="48.58572" lon="-0.58551">
        <ele>278</ele>
        <time>2012-12-30T15:14:45Z</time>
      </trkpt>
      <trkpt lat="48.58572" lon="-0.58526">
        <ele>288</ele>
        <time>2012-12-30T15:15:01Z</time>
      </trkpt>
      <trkpt lat="48.58571" lon="-0.58502">
        <ele>279</ele>
        <time>2012-12-30T15:15:14Z</time>
      </trkpt>
      <trkpt lat="48.58578" lon="-0.58483">
        <ele>277</ele>
        <time>2012-12-30T15:15:28Z</time>
      </trkpt>
      <trkpt lat="48.58579" lon="-0.58458">
        <ele>279</ele>
        <time>2012-12-30T15:15:42Z</time>
      </trkpt>
      <trkpt lat="48.58579" lon="-0.58436">
        <ele>278</ele>
        <time>2012-12-30T15:15:52Z</time>
      </trkpt>
      <trkpt lat="48.58574" lon="-0.58417">
        <ele>272</ele>
        <time>2012-12-30T15:16:01Z</time>
      </trkpt>
      <trkpt lat="48.58572" lon="-0.58412">
        <ele>268</ele>
        <time>2012-12-30T15:16:07Z</time>
      </trkpt>
      <trkpt lat="48.58569" lon="-0.58399">
        <ele>274</ele>
        <time>2012-12-30T15:16:19Z</time>
      </trkpt>
      <trkpt lat="48.5856" lon="-0.58387">
        <ele>275</ele>
        <time>2012-12-30T15:16:34Z</time>
      </trkpt>
      <trkpt lat="48.58552" lon="-0.58367">
        <ele>277</ele>
        <time>2012-12-30T15:16:51Z</time>
      </trkpt>
      <trkpt lat="48.58546" lon="-0.58326">
        <ele>280</ele>
        <time>2012-12-30T15:17:29Z</time>
      </trkpt>
      <trkpt lat="48.58536" lon="-0.58285">
        <ele>282</ele>
        <time>2012-12-30T15:17:58Z</time>
      </trkpt>
      <trkpt lat="48.58526" lon="-0.58265">
        <ele>277</ele>
        <time>2012-12-30T15:18:11Z</time>
      </trkpt>
      <trkpt lat="48.58532" lon="-0.58244">
        <ele>271</ele>
        <time>2012-12-30T15:18:28Z</time>
      </trkpt>
      <trkpt lat="48.58528" lon="-0.58212">
        <ele>281</ele>
        <time>2012-12-30T15:18:48Z</time>
      </trkpt>
      <trkpt lat="48.58522" lon="-0.58184">
        <ele>279</ele>
        <time>2012-12-30T15:19:07Z</time>
      </trkpt>
      <trkpt lat="48.58515" lon="-0.58174">
        <ele>294</ele>
        <time>2012-12-30T15:19:19Z</time>
      </trkpt>
      <trkpt lat="48.58505" lon="-0.58165">
        <ele>296</ele>
        <time>2012-12-30T15:19:28Z</time>
      </trkpt>
      <trkpt lat="48.58499" lon="-0.58143">
        <ele>287</ele>
        <time>2012-12-30T15:19:39Z</time>
      </trkpt>
      <trkpt lat="48.58498" lon="-0.58122">
        <ele>284</ele>
        <time>2012-12-30T15:19:47Z</time>
      </trkpt>
      <trkpt lat="48.58499" lon="-0.58117">
        <ele>288</ele>
        <time>2012-12-30T15:19:56Z</time>
      </trkpt>
      <trkpt lat="48.58485" lon="-0.58096">
        <ele>288</ele>
        <time>2012-12-30T15:21:26Z</time>
      </trkpt>
      <trkpt lat="48.58482" lon="-0.58056">
        <ele>292</ele>
        <time>2012-12-30T15:22:00Z</time>
      </trkpt>
      <trkpt lat="48.58467" lon="-0.58021">
        <ele>302</ele>
        <time>2012-12-30T15:22:30Z</time>
      </trkpt>
      <trkpt lat="48.58463" lon="-0.58002">
        <ele>288</ele>
        <time>2012-12-30T15:22:42Z</time>
      </trkpt>
      <trkpt lat="48.58462" lon="-0.57981">
        <ele>281</ele>
        <time>2012-12-30T15:22:59Z</time>
      </trkpt>
      <trkpt lat="48.58447" lon="-0.57942">
        <ele>291</ele>
        <time>2012-12-30T15:23:31Z</time>
      </trkpt>
      <trkpt lat="48.58445" lon="-0.57923">
        <ele>284</ele>
        <time>2012-12-30T15:23:45Z</time>
      </trkpt>
      <trkpt lat="48.58419" lon="-0.57914">
        <ele>290</ele>
        <time>2012-12-30T15:24:03Z</time>
      </trkpt>
      <trkpt lat="48.58409" lon="-0.57897">
        <ele>287</ele>
        <time>2012-12-30T15:24:13Z</time>
      </trkpt>
      <trkpt lat="48.58423" lon="-0.57873">
        <ele>292</ele>
        <time>2012-12-30T15:24:27Z</time>
      </trkpt>
      <trkpt lat="48.58423" lon="-0.57865">
        <ele>297</ele>
        <time>2012-12-30T15:24:33Z</time>
      </trkpt>
      <trkpt lat="48.58423" lon="-0.5786">
        <ele>291</ele>
        <time>2012-12-30T15:24:41Z</time>
      </trkpt>
      <trkpt lat="48.58414" lon="-0.57842">
        <ele>300</ele>
        <time>2012-12-30T15:25:07Z</time>
      </trkpt>
      <trkpt lat="48.58412" lon="-0.57844">
        <ele>301</ele>
        <time>2012-12-30T15:25:08Z</time>
      </trkpt>
      <trkpt lat="48.58408" lon="-0.57839">
        <ele>299</ele>
        <time>2012-12-30T15:25:14Z</time>
      </trkpt>
      <trkpt lat="48.58385" lon="-0.57813">
        <ele>297</ele>
        <time>2012-12-30T15:26:03Z</time>
      </trkpt>
      <trkpt lat="48.58376" lon="-0.57801">
        <ele>299</ele>
        <time>2012-12-30T15:26:13Z</time>
      </trkpt>
      <trkpt lat="48.5837" lon="-0.57779">
        <ele>299</ele>
        <time>2012-12-30T15:26:28Z</time>
      </trkpt>
      <trkpt lat="48.58366" lon="-0.57754">
        <ele>307</ele>
        <time>2012-12-30T15:26:44Z</time>
      </trkpt>
      <trkpt lat="48.5836" lon="-0.57723">
        <ele>293</ele>
        <time>2012-12-30T15:27:03Z</time>
      </trkpt>
      <trkpt lat="48.58348" lon="-0.5771">
        <ele>291</ele>
        <time>2012-12-30T15:27:15Z</time>
      </trkpt>
      <trkpt lat="48.58346" lon="-0.57697">
        <ele>299</ele>
        <time>2012-12-30T15:27:25Z</time>
      </trkpt>
      <trkpt lat="48.58342" lon="-0.57676">
        <ele>286</ele>
        <time>2012-12-30T15:27:36Z</time>
      </trkpt>
      <trkpt lat="48.58337" lon="-0.57654">
        <ele>292</ele>
        <time>2012-12-30T15:27:49Z</time>
      </trkpt>
      <trkpt lat="48.58331" lon="-0.57624">
        <ele>288</ele>
        <time>2012-12-30T15:28:07Z</time>
      </trkpt>
      <trkpt lat="48.58325" lon="-0.57604">
        <ele>283</ele>
        <time>2012-12-30T15:28:20Z</time>
      </trkpt>
      <trkpt lat="48.58316" lon="-0.57595">
        <ele>289</ele>
        <time>2012-12-30T15:28:35Z</time>
      </trkpt>
      <trkpt lat="48.58308" lon="-0.5758">
        <ele>288</ele>
        <time>2012-12-30T15:28:50Z</time>
      </trkpt>
      <trkpt lat="48.58308" lon="-0.57564">
        <ele>290</ele>
        <time>2012-12-30T15:29:01Z</time>
      </trkpt>
      <trkpt lat="48.58304" lon="-0.57557">
        <ele>290</ele>
        <time>2012-12-30T15:29:12Z</time>
      </trkpt>
      <trkpt lat="48.58304" lon="-0.57557">
        <ele>290</ele>
        <time>2012-12-30T15:29:20Z</time>
      </trkpt>
      <trkpt lat="48.58304" lon="-0.57557">
        <ele>290</ele>
        <time>2012-12-30T15:29:21Z</time>
      </trkpt>
      <trkpt lat="48.58297" lon="-0.57541">
        <ele>299</ele>
        <time>2012-12-30T15:29:29Z</time>
      </trkpt>
      <trkpt lat="48.58292" lon="-0.57516">
        <ele>298</ele>
        <time>2012-12-30T15:29:43Z</time>
      </trkpt>
      <trkpt lat="48.58282" lon="-0.57498">
        <ele>296</ele>
        <time>2012-12-30T15:30:05Z</time>
      </trkpt>
      <trkpt lat="48.58282" lon="-0.57498">
        <ele>296</ele>
        <time>2012-12-30T15:30:12Z</time>
      </trkpt>
      <trkpt lat="48.58276" lon="-0.57465">
        <ele>302</ele>
        <time>2012-12-30T15:30:25Z</time>
      </trkpt>
      <trkpt lat="48.58262" lon="-0.57437">
        <ele>292</ele>
        <time>2012-12-30T15:30:46Z</time>
      </trkpt>
      <trkpt lat="48.58258" lon="-0.57416">
        <ele>299</ele>
        <time>2012-12-30T15:30:58Z</time>
      </trkpt>
      <trkpt lat="48.58253" lon="-0.57405">
        <ele>297</ele>
        <time>2012-12-30T15:31:10Z</time>
      </trkpt>
      <trkpt lat="48.58248" lon="-0.57386">
        <ele>286</ele>
        <time>2012-12-30T15:31:25Z</time>
      </trkpt>
      <trkpt lat="48.58247" lon="-0.57371">
        <ele>292</ele>
        <time>2012-12-30T15:31:34Z</time>
      </trkpt>
      <trkpt lat="48.58246" lon="-0.57334">
        <ele>302</ele>
        <time>2012-12-30T15:31:52Z</time>
      </trkpt>
      <trkpt lat="48.58241" lon="-0.57303">
        <ele>306</ele>
        <time>2012-12-30T15:32:10Z</time>
      </trkpt>
      <trkpt lat="48.58242" lon="-0.57288">
        <ele>297</ele>
        <time>2012-12-30T15:32:25Z</time>
      </trkpt>
      <trkpt lat="48.58242" lon="-0.57288">
        <ele>297</ele>
        <time>2012-12-30T15:32:32Z</time>
      </trkpt>
      <trkpt lat="48.58242" lon="-0.57288">
        <ele>297</ele>
        <time>2012-12-30T15:32:33Z</time>
      </trkpt>
      <trkpt lat="48.58238" lon="-0.57265">
        <ele>302</ele>
        <time>2012-12-30T15:32:51Z</time>
      </trkpt>
      <trkpt lat="48.58232" lon="-0.57247">
        <ele>305</ele>
        <time>2012-12-30T15:33:11Z</time>
      </trkpt>
      <trkpt lat="48.58233" lon="-0.57225">
        <ele>302</ele>
        <time>2012-12-30T15:33:26Z</time>
      </trkpt>
      <trkpt lat="48.58229" lon="-0.57209">
        <ele>299</ele>
        <time>2012-12-30T15:33:37Z</time>
      </trkpt>
      <trkpt lat="48.58225" lon="-0.57197">
        <ele>299</ele>
        <time>2012-12-30T15:33:44Z</time>
      </trkpt>
      <trkpt lat="48.58227" lon="-0.57184">
        <ele>296</ele>
        <time>2012-12-30T15:33:57Z</time>
      </trkpt>
      <trkpt lat="48.58228" lon="-0.57158">
        <ele>295</ele>
        <time>2012-12-30T15:34:12Z</time>
      </trkpt>
      <trkpt lat="48.58222" lon="-0.57131">
        <ele>296</ele>
        <time>2012-12-30T15:34:28Z</time>
      </trkpt>
      <trkpt lat="48.58213" lon="-0.57099">
        <ele>301</ele>
        <time>2012-12-30T15:34:48Z</time>
      </trkpt>
      <trkpt lat="48.58202" lon="-0.57075">
        <ele>302</ele>
        <time>2012-12-30T15:35:09Z</time>
      </trkpt>
      <trkpt lat="48.58195" lon="-0.5706">
        <ele>301</ele>
        <time>2012-12-30T15:35:22Z</time>
      </trkpt>
      <trkpt lat="48.58193" lon="-0.57032">
        <ele>301</ele>
        <time>2012-12-30T15:35:40Z</time>
      </trkpt>
      <trkpt lat="48.58188" lon="-0.56989">
        <ele>299</ele>
        <time>2012-12-30T15:36:52Z</time>
      </trkpt>
      <trkpt lat="48.5818" lon="-0.5695">
        <ele>300</ele>
        <time>2012-12-30T15:37:25Z</time>
      </trkpt>
      <trkpt lat="48.58176" lon="-0.56921">
        <ele>298</ele>
        <time>2012-12-30T15:37:40Z</time>
      </trkpt>
      <trkpt lat="48.58171" lon="-0.56906">
        <ele>298</ele>
        <time>2012-12-30T15:37:50Z</time>
      </trkpt>
      <trkpt lat="48.58162" lon="-0.56879">
        <ele>293</ele>
        <time>2012-12-30T15:38:07Z</time>
      </trkpt>
      <trkpt lat="48.58157" lon="-0.56863">
        <ele>292</ele>
        <time>2012-12-30T15:38:19Z</time>
      </trkpt>
      <trkpt lat="48.58152" lon="-0.56837">
        <ele>293</ele>
        <time>2012-12-30T15:38:35Z</time>
      </trkpt>
      <trkpt lat="48.58144" lon="-0.56811">
        <ele>291</ele>
        <time>2012-12-30T15:38:50Z</time>
      </trkpt>
      <trkpt lat="48.5814" lon="-0.56792">
        <ele>294</ele>
        <time>2012-12-30T15:39:03Z</time>
      </trkpt>
      <trkpt lat="48.58131" lon="-0.56773">
        <ele>293</ele>
        <time>2012-12-30T15:39:16Z</time>
      </trkpt>
      <trkpt lat="48.58129" lon="-0.56769">
        <ele>295</ele>
        <time>2012-12-30T15:39:24Z</time>
      </trkpt>
      <trkpt lat="48.58116" lon="-0.56783">
        <ele>292</ele>
        <time>2012-12-30T15:39:39Z</time>
      </trkpt>
      <trkpt lat="48.58101" lon="-0.5679">
        <ele>298</ele>
        <time>2012-12-30T15:39:51Z</time>
      </trkpt>
      <trkpt lat="48.58083" lon="-0.56797">
        <ele>285</ele>
        <time>2012-12-30T15:40:08Z</time>
      </trkpt>
      <trkpt lat="48.5808" lon="-0.5681">
        <ele>279</ele>
        <time>2012-12-30T15:40:18Z</time>
      </trkpt>
      <trkpt lat="48.58079" lon="-0.5682">
        <ele>289</ele>
        <time>2012-12-30T15:40:32Z</time>
      </trkpt>
      <trkpt lat="48.58079" lon="-0.5682">
        <ele>289</ele>
        <time>2012-12-30T15:43:23Z</time>
      </trkpt>
      <trkpt lat="48.58079" lon="-0.5682">
        <ele>240</ele>
        <time>2012-12-30T15:43:30Z</time>
      </trkpt>
      <trkpt lat="48.58079" lon="-0.5682">
        <ele>240</ele>
        <time>2012-12-30T15:44:07Z</time>
      </trkpt>
    </trkseg>
  </trk>
</gpx>